Strong City, Kansas
Current Conditions -  °F | °C
As of 6:53 AM on Thursday 27 Nov 2014 (Local Time) from KEMP Reporting Station
Few Clouds Few Clouds  
Wind Chill: 17°   Ceiling: Unl
Heat Index: 17°   Visibility: 9mi
Dew Point: 15°   Wind: 0mph
Humidity: 92%   Direction: NA
Pressure: 30.51"   Gusts: NA
Location:  38.4°N, 96.54°W
Report Text: KEMP 271253Z AUTO 00000KT 9SM FEW085 M08/M09 A3051 RMK AO2 PK WND 33028/1244 SLP351 T10831094
Loading
Personal Weather Stations






























Interactive Weather Map New forecast layout! Learn more

10-Day Weather Forecast

Advertisements
Track Severe Weather on mobile